createdAt,value
2023-08-17T00:00:12.717Z,1011.87
2023-08-17T00:01:12.735Z,1011.86
2023-08-17T00:02:12.697Z,1011.88
2023-08-17T00:03:12.726Z,1011.85
2023-08-17T00:04:12.720Z,1011.88
2023-08-17T00:05:12.665Z,1011.92
2023-08-17T00:06:12.650Z,1011.92
2023-08-17T00:07:12.647Z,1011.94
2023-08-17T00:08:12.633Z,1011.95
2023-08-17T00:09:12.660Z,1011.97
2023-08-17T00:10:12.610Z,1012.00
2023-08-17T00:11:12.593Z,1012.04
2023-08-17T00:12:12.584Z,1012.05
2023-08-17T00:13:12.571Z,1012.04
2023-08-17T00:14:12.562Z,1012.02
2023-08-17T00:15:12.586Z,1012.05
2023-08-17T00:16:12.565Z,1012.06
2023-08-17T00:17:12.532Z,1012.05
2023-08-17T00:18:12.516Z,1012.09
2023-08-17T00:19:12.520Z,1012.07
2023-08-17T00:20:12.498Z,1012.11
2023-08-17T00:21:12.490Z,1012.11
2023-08-17T00:22:12.478Z,1012.11
2023-08-17T00:23:12.460Z,1012.14
2023-08-17T00:24:12.470Z,1012.18
2023-08-17T00:25:12.465Z,1012.17
2023-08-17T00:26:12.428Z,1012.18
2023-08-17T00:27:12.419Z,1012.18
2023-08-17T00:28:12.406Z,1012.17
2023-08-17T00:29:12.410Z,1012.19
2023-08-17T00:30:12.400Z,1012.19
2023-08-17T00:31:12.388Z,1012.18
2023-08-17T00:32:12.367Z,1012.17
2023-08-17T00:33:12.358Z,1012.15
2023-08-17T00:34:12.377Z,1012.18
2023-08-17T00:35:12.327Z,1012.19
2023-08-17T00:36:12.332Z,1012.24
2023-08-17T00:37:12.313Z,1012.25
2023-08-17T00:38:12.294Z,1012.28
2023-08-17T00:39:12.296Z,1012.30
2023-08-17T00:40:12.279Z,1012.28
2023-08-17T00:41:12.300Z,1012.33
2023-08-17T00:42:12.257Z,1012.31
2023-08-17T00:43:12.247Z,1012.36
2023-08-17T00:44:12.272Z,1012.33
2023-08-17T00:45:12.218Z,1012.33
2023-08-17T00:46:12.256Z,1012.36
2023-08-17T00:47:12.202Z,1012.33
2023-08-17T00:48:12.194Z,1012.34
2023-08-17T00:49:12.196Z,1012.31
2023-08-17T00:50:12.173Z,1012.30
2023-08-17T00:51:12.150Z,1012.24
2023-08-17T00:52:12.145Z,1012.22
2023-08-17T00:53:12.127Z,1012.20
2023-08-17T00:54:12.150Z,1012.19
2023-08-17T00:55:12.120Z,1012.18
2023-08-17T00:56:12.097Z,1012.17
2023-08-17T00:57:12.125Z,1012.18
2023-08-17T00:58:12.074Z,1012.16
2023-08-17T00:59:12.154Z,1012.19
2023-08-17T01:00:12.069Z,1012.17
2023-08-17T01:01:12.103Z,1012.16
2023-08-17T01:02:12.052Z,1012.14
2023-08-17T01:03:12.155Z,1012.14
2023-08-17T01:04:12.032Z,1012.14
2023-08-17T01:05:12.045Z,1012.12
2023-08-17T01:06:11.995Z,1012.10
2023-08-17T01:07:11.977Z,1012.10
2023-08-17T01:08:11.989Z,1012.08
2023-08-17T01:09:11.956Z,1012.11
2023-08-17T01:10:12.012Z,1012.13
2023-08-17T01:11:11.941Z,1012.11
2023-08-17T01:12:11.938Z,1012.07
2023-08-17T01:13:11.944Z,1012.11
2023-08-17T01:14:11.933Z,1012.12
2023-08-17T01:15:11.901Z,1012.14
2023-08-17T01:16:11.910Z,1012.13
2023-08-17T01:17:11.869Z,1012.11
2023-08-17T01:18:11.867Z,1012.10
2023-08-17T01:19:11.906Z,1012.11
2023-08-17T01:20:11.847Z,1012.10
2023-08-17T01:21:11.833Z,1012.09
2023-08-17T01:22:11.813Z,1012.08
2023-08-17T01:23:11.798Z,1012.09
2023-08-17T01:24:11.789Z,1012.10
2023-08-17T01:25:11.820Z,1012.09
2023-08-17T01:26:11.768Z,1012.06
2023-08-17T01:27:11.755Z,1012.04
2023-08-17T01:28:11.752Z,1012.04
2023-08-17T01:29:11.761Z,1012.02
2023-08-17T01:30:11.756Z,1012.06
2023-08-17T01:31:11.761Z,1012.04
2023-08-17T01:32:11.706Z,1012.08
2023-08-17T01:33:11.699Z,1012.13
2023-08-17T01:34:11.681Z,1012.13
2023-08-17T01:35:11.683Z,1012.18
2023-08-17T01:36:11.658Z,1012.21
2023-08-17T01:37:11.666Z,1012.19
2023-08-17T01:38:11.637Z,1012.21
2023-08-17T01:39:11.623Z,1012.20
2023-08-17T01:40:11.643Z,1012.18
2023-08-17T01:41:11.607Z,1012.21
2023-08-17T01:42:11.606Z,1012.22
2023-08-17T01:43:11.588Z,1012.22
2023-08-17T01:44:11.569Z,1012.22
2023-08-17T01:45:11.618Z,1012.23
2023-08-17T01:46:11.598Z,1012.23
2023-08-17T01:47:11.536Z,1012.21
2023-08-17T01:48:11.529Z,1012.26
2023-08-17T01:49:11.526Z,1012.27
2023-08-17T01:50:11.525Z,1012.28
2023-08-17T01:51:11.492Z,1012.27
2023-08-17T01:52:11.505Z,1012.28
2023-08-17T01:53:11.485Z,1012.27
2023-08-17T01:54:11.461Z,1012.28
2023-08-17T01:55:11.473Z,1012.26
2023-08-17T01:56:11.455Z,1012.26
2023-08-17T01:57:11.435Z,1012.24
2023-08-17T01:58:11.419Z,1012.21
2023-08-17T01:59:11.418Z,1012.24
2023-08-17T02:00:11.408Z,1012.27
2023-08-17T02:01:11.535Z,1012.25
2023-08-17T02:02:11.389Z,1012.23
2023-08-17T02:03:11.393Z,1012.20
2023-08-17T02:04:11.356Z,1012.17
2023-08-17T02:05:11.359Z,1012.16
2023-08-17T02:06:11.329Z,1012.16
2023-08-17T02:07:11.319Z,1012.17
2023-08-17T02:08:11.311Z,1012.17
2023-08-17T02:09:11.295Z,1012.19
2023-08-17T02:10:11.313Z,1012.19
2023-08-17T02:11:11.285Z,1012.20
2023-08-17T02:12:11.268Z,1012.24
2023-08-17T02:13:18.065Z,1012.23
2023-08-17T02:14:12.242Z,1012.24
2023-08-17T02:15:11.250Z,1012.27
2023-08-17T02:16:11.257Z,1012.27
2023-08-17T02:17:11.232Z,1012.24
2023-08-17T02:18:11.207Z,1012.22
2023-08-17T02:19:11.185Z,1012.26
2023-08-17T02:20:11.189Z,1012.24
2023-08-17T02:21:11.159Z,1012.20
2023-08-17T02:22:11.152Z,1012.21
2023-08-17T02:23:11.141Z,1012.21
2023-08-17T02:24:11.132Z,1012.19
2023-08-17T02:25:11.140Z,1012.14
2023-08-17T02:26:11.121Z,1012.13
2023-08-17T02:27:11.117Z,1012.11
2023-08-17T02:28:11.093Z,1012.06
2023-08-17T02:29:11.761Z,1012.11
2023-08-17T02:30:11.088Z,1012.09
2023-08-17T02:31:11.084Z,1012.07
2023-08-17T02:32:11.050Z,1012.08
2023-08-17T02:33:11.055Z,1012.04
2023-08-17T02:34:11.024Z,1012.05
2023-08-17T02:35:11.010Z,1012.06
2023-08-17T02:36:11.037Z,1012.03
2023-08-17T02:37:11.011Z,1012.03
2023-08-17T02:38:10.995Z,1012.01
2023-08-17T02:39:10.960Z,1012.01
2023-08-17T02:40:10.951Z,1011.98
2023-08-17T02:41:10.939Z,1011.98
2023-08-17T02:42:10.968Z,1012.00
2023-08-17T02:43:10.919Z,1011.99
2023-08-17T02:44:10.905Z,1011.98
2023-08-17T02:45:10.925Z,1011.98
2023-08-17T02:46:10.928Z,1011.92
2023-08-17T02:47:10.869Z,1011.93
2023-08-17T02:48:10.982Z,1011.95
2023-08-17T02:49:10.867Z,1011.92
2023-08-17T02:50:10.855Z,1011.88
2023-08-17T02:51:10.821Z,1011.86
2023-08-17T02:52:10.816Z,1011.84
2023-08-17T02:53:10.803Z,1011.86
2023-08-17T02:54:10.807Z,1011.84
2023-08-17T02:55:10.785Z,1011.87
2023-08-17T02:56:10.790Z,1011.82
2023-08-17T02:57:10.769Z,1011.77
2023-08-17T02:58:10.747Z,1011.75
2023-08-17T02:59:10.737Z,1011.72
2023-08-17T03:00:10.725Z,1011.71
2023-08-17T03:01:10.745Z,1011.69
2023-08-17T03:02:10.703Z,1011.62
2023-08-17T03:03:10.805Z,1011.62
2023-08-17T03:04:10.678Z,1011.65
2023-08-17T03:05:10.718Z,1011.66
2023-08-17T03:06:10.697Z,1011.64
2023-08-17T03:07:10.650Z,1011.61
2023-08-17T03:08:10.634Z,1011.64
2023-08-17T03:09:10.627Z,1011.61
2023-08-17T03:10:10.617Z,1011.62
2023-08-17T03:11:10.612Z,1011.63
2023-08-17T03:12:10.647Z,1011.59
2023-08-17T03:13:10.583Z,1011.60
2023-08-17T03:14:10.582Z,1011.59
2023-08-17T03:15:10.594Z,1011.59
2023-08-17T03:16:10.632Z,1011.58
2023-08-17T03:17:10.541Z,1011.60
2023-08-17T03:18:10.554Z,1011.61
2023-08-17T03:19:10.521Z,1011.58
2023-08-17T03:20:10.517Z,1011.61
2023-08-17T03:21:10.510Z,1011.61
2023-08-17T03:22:10.478Z,1011.62
2023-08-17T03:23:10.475Z,1011.62
2023-08-17T03:24:10.472Z,1011.62
2023-08-17T03:25:10.451Z,1011.61
2023-08-17T03:26:10.469Z,1011.62
2023-08-17T03:27:10.424Z,1011.66
2023-08-17T03:28:10.416Z,1011.64
2023-08-17T03:29:10.401Z,1011.65
2023-08-17T03:30:10.397Z,1011.63
2023-08-17T03:31:10.425Z,1011.65
2023-08-17T03:32:10.385Z,1011.63
2023-08-17T03:33:10.388Z,1011.65
2023-08-17T03:34:10.353Z,1011.66
2023-08-17T03:35:10.335Z,1011.62
2023-08-17T03:36:10.340Z,1011.64
2023-08-17T03:37:10.331Z,1011.64
2023-08-17T03:38:10.302Z,1011.62
2023-08-17T03:39:10.305Z,1011.67
2023-08-17T03:40:10.281Z,1011.68
2023-08-17T03:41:10.308Z,1011.66
2023-08-17T03:42:10.256Z,1011.66
2023-08-17T03:43:10.244Z,1011.67
2023-08-17T03:44:10.234Z,1011.69
2023-08-17T03:45:10.248Z,1011.70
2023-08-17T03:46:10.256Z,1011.72
2023-08-17T03:47:10.206Z,1011.71
2023-08-17T03:48:10.254Z,1011.72
2023-08-17T03:49:10.195Z,1011.74
2023-08-17T03:50:10.162Z,1011.74
2023-08-17T03:51:10.177Z,1011.71
2023-08-17T03:52:10.145Z,1011.73
2023-08-17T03:53:10.152Z,1011.73
2023-08-17T03:54:10.128Z,1011.75
2023-08-17T03:55:10.119Z,1011.74
2023-08-17T03:56:10.118Z,1011.73
2023-08-17T03:57:10.108Z,1011.77
2023-08-17T03:58:10.080Z,1011.79
2023-08-17T03:59:10.068Z,1011.78
2023-08-17T04:00:10.056Z,1011.82
2023-08-17T04:01:10.062Z,1011.86
2023-08-17T04:02:10.035Z,1011.86
2023-08-17T04:03:10.024Z,1011.88
2023-08-17T04:04:10.022Z,1011.91
2023-08-17T04:05:10.086Z,1011.92
2023-08-17T04:06:10.028Z,1011.92
2023-08-17T04:07:09.989Z,1011.95
2023-08-17T04:08:09.971Z,1011.94
2023-08-17T04:09:09.980Z,1011.97
2023-08-17T04:10:09.952Z,1011.98
2023-08-17T04:11:09.957Z,1011.95
2023-08-17T04:12:09.937Z,1011.96
2023-08-17T04:13:09.943Z,1011.96
2023-08-17T04:14:09.915Z,1011.98
2023-08-17T04:15:09.888Z,1011.99
2023-08-17T04:16:10.002Z,1011.98
2023-08-17T04:17:09.864Z,1011.95
2023-08-17T04:18:09.896Z,1012.01
2023-08-17T04:19:09.845Z,1012.00
2023-08-17T04:20:09.848Z,1012.01
2023-08-17T04:21:09.840Z,1012.01
2023-08-17T04:22:09.822Z,1012.00
2023-08-17T04:23:09.804Z,1012.01
2023-08-17T04:24:09.798Z,1012.02
2023-08-17T04:25:09.799Z,1012.02
2023-08-17T04:26:09.792Z,1012.03
2023-08-17T04:27:09.770Z,1012.02
2023-08-17T04:28:09.747Z,1012.04
2023-08-17T04:29:09.736Z,1012.02
2023-08-17T04:30:09.722Z,1012.04
2023-08-17T04:31:09.797Z,1012.06
2023-08-17T04:32:09.711Z,1012.08
2023-08-17T04:33:09.693Z,1012.07
2023-08-17T04:34:09.679Z,1012.12
2023-08-17T04:35:09.676Z,1012.14
2023-08-17T04:36:09.666Z,1012.15
2023-08-17T04:37:09.648Z,1012.16
2023-08-17T04:38:09.650Z,1012.13
2023-08-17T04:39:09.626Z,1012.18
2023-08-17T04:40:09.608Z,1012.14
2023-08-17T04:41:09.647Z,1012.12
2023-08-17T04:42:09.585Z,1012.14
2023-08-17T04:43:09.594Z,1012.16
2023-08-17T04:44:09.568Z,1012.16
2023-08-17T04:45:09.573Z,1012.13
2023-08-17T04:46:09.623Z,1012.17
2023-08-17T04:47:09.529Z,1012.15
2023-08-17T04:48:09.567Z,1012.19
2023-08-17T04:49:09.507Z,1012.18
2023-08-17T04:50:09.497Z,1012.23
2023-08-17T04:51:09.513Z,1012.22
2023-08-17T04:52:09.471Z,1012.26
2023-08-17T04:53:09.470Z,1012.30
2023-08-17T04:54:09.459Z,1012.31
2023-08-17T04:55:09.441Z,1012.29
2023-08-17T04:56:09.439Z,1012.32
2023-08-17T04:57:09.473Z,1012.32
2023-08-17T04:58:09.413Z,1012.35
2023-08-17T04:59:09.400Z,1012.34
2023-08-17T05:00:09.397Z,1012.32
2023-08-17T05:01:09.402Z,1012.36
2023-08-17T05:02:09.413Z,1012.35
2023-08-17T05:03:16.988Z,1012.34
2023-08-17T05:04:10.335Z,1012.38
2023-08-17T05:05:09.331Z,1012.35
2023-08-17T05:06:09.316Z,1012.39
2023-08-17T05:07:09.325Z,1012.34
2023-08-17T05:08:09.296Z,1012.34
2023-08-17T05:09:09.286Z,1012.34
2023-08-17T05:10:09.273Z,1012.29
2023-08-17T05:11:09.299Z,1012.29
2023-08-17T05:12:09.299Z,1012.30
2023-08-17T05:13:09.260Z,1012.28
2023-08-17T05:14:09.232Z,1012.32
2023-08-17T05:15:11.325Z,1012.31
2023-08-17T05:16:09.220Z,1012.33
2023-08-17T05:17:09.212Z,1012.33
2023-08-17T05:18:09.245Z,1012.33
2023-08-17T05:19:09.172Z,1012.34
2023-08-17T05:20:09.186Z,1012.36
2023-08-17T05:21:09.154Z,1012.36
2023-08-17T05:22:09.153Z,1012.38
2023-08-17T05:23:09.151Z,1012.39
2023-08-17T05:24:09.117Z,1012.38
2023-08-17T05:25:09.111Z,1012.36
2023-08-17T05:26:09.094Z,1012.36
2023-08-17T05:27:09.117Z,1012.40
2023-08-17T05:28:09.071Z,1012.37
2023-08-17T05:29:09.095Z,1012.42
2023-08-17T05:30:09.058Z,1012.46
2023-08-17T05:31:09.103Z,1012.44
2023-08-17T05:32:09.025Z,1012.45
2023-08-17T05:33:09.074Z,1012.46
2023-08-17T05:34:09.033Z,1012.48
2023-08-17T05:35:09.010Z,1012.46
2023-08-17T05:36:08.982Z,1012.45
2023-08-17T05:37:08.993Z,1012.49
2023-08-17T05:38:08.960Z,1012.50
2023-08-17T05:39:08.953Z,1012.48
2023-08-17T05:40:08.943Z,1012.49
2023-08-17T05:41:08.943Z,1012.52
2023-08-17T05:42:08.944Z,1012.50
2023-08-17T05:43:08.908Z,1012.47
2023-08-17T05:44:08.901Z,1012.48
2023-08-17T05:45:08.925Z,1012.53
2023-08-17T05:46:08.918Z,1012.48
2023-08-17T05:47:08.862Z,1012.51
2023-08-17T05:48:08.871Z,1012.50
2023-08-17T05:49:08.885Z,1012.48
2023-08-17T05:50:08.843Z,1012.52
2023-08-17T05:51:08.844Z,1012.48
2023-08-17T05:52:08.809Z,1012.48
2023-08-17T05:53:08.826Z,1012.49
2023-08-17T05:54:08.792Z,1012.51
2023-08-17T05:55:08.778Z,1012.51
2023-08-17T05:56:08.758Z,1012.49
2023-08-17T05:57:08.752Z,1012.47
2023-08-17T05:58:08.734Z,1012.52
2023-08-17T05:59:08.763Z,1012.51
2023-08-17T06:00:08.708Z,1012.54
2023-08-17T06:01:08.820Z,1012.55
2023-08-17T06:02:08.687Z,1012.56
2023-08-17T06:03:08.772Z,1012.56
2023-08-17T06:04:08.685Z,1012.60
2023-08-17T06:05:08.658Z,1012.54
2023-08-17T06:06:08.666Z,1012.59
2023-08-17T06:07:08.646Z,1012.57
2023-08-17T06:08:08.622Z,1012.56
2023-08-17T06:09:08.613Z,1012.55
2023-08-17T06:10:08.623Z,1012.55
2023-08-17T06:11:08.601Z,1012.50
2023-08-17T06:12:08.578Z,1012.50
2023-08-17T06:13:08.566Z,1012.49
2023-08-17T06:14:08.553Z,1012.49
2023-08-17T06:15:08.551Z,1012.52
2023-08-17T06:16:08.583Z,1012.53
2023-08-17T06:17:08.540Z,1012.51
2023-08-17T06:18:08.562Z,1012.53
2023-08-17T06:19:08.500Z,1012.54
2023-08-17T06:20:08.489Z,1012.56
2023-08-17T06:21:08.499Z,1012.57
2023-08-17T06:22:08.463Z,1012.54
2023-08-17T06:23:08.496Z,1012.56
2023-08-17T06:24:08.439Z,1012.50
2023-08-17T06:25:08.490Z,1012.54
2023-08-17T06:26:08.419Z,1012.54
2023-08-17T06:27:08.410Z,1012.50
2023-08-17T06:28:08.414Z,1012.54
2023-08-17T06:29:08.400Z,1012.53
2023-08-17T06:30:08.413Z,1012.54
2023-08-17T06:31:08.395Z,1012.57
2023-08-17T06:32:08.357Z,1012.59
2023-08-17T06:33:08.397Z,1012.60
2023-08-17T06:34:08.350Z,1012.57
2023-08-17T06:35:08.317Z,1012.61
2023-08-17T06:36:08.340Z,1012.61
2023-08-17T06:37:08.316Z,1012.61
2023-08-17T06:38:08.288Z,1012.61
2023-08-17T06:39:08.274Z,1012.63
2023-08-17T06:40:08.261Z,1012.61
2023-08-17T06:41:08.255Z,1012.58
2023-08-17T06:42:08.262Z,1012.58
2023-08-17T06:43:08.239Z,1012.56
2023-08-17T06:44:08.222Z,1012.60
2023-08-17T06:45:08.208Z,1012.59
2023-08-17T06:46:08.203Z,1012.57
2023-08-17T06:47:08.191Z,1012.61
2023-08-17T06:48:08.237Z,1012.65
2023-08-17T06:49:08.186Z,1012.64
2023-08-17T06:50:09.644Z,1012.63
2023-08-17T06:51:08.140Z,1012.62
2023-08-17T06:52:08.131Z,1012.61
2023-08-17T06:53:08.122Z,1012.59
2023-08-17T06:54:08.106Z,1012.60
2023-08-17T06:55:08.121Z,1012.57
2023-08-17T06:56:08.083Z,1012.60
2023-08-17T06:57:08.078Z,1012.62
2023-08-17T06:58:08.067Z,1012.63
2023-08-17T06:59:08.063Z,1012.63
2023-08-17T07:00:08.084Z,1012.61
2023-08-17T07:01:08.030Z,1012.60
2023-08-17T07:02:08.101Z,1012.64
2023-08-17T07:03:08.028Z,1012.64
2023-08-17T07:04:08.001Z,1012.65
2023-08-17T07:05:08.035Z,1012.63
2023-08-17T07:06:07.997Z,1012.67
2023-08-17T07:07:07.969Z,1012.64
2023-08-17T07:08:07.956Z,1012.64
2023-08-17T07:09:07.957Z,1012.67
2023-08-17T07:10:07.928Z,1012.66
2023-08-17T07:11:07.926Z,1012.67
2023-08-17T07:12:07.932Z,1012.64
2023-08-17T07:13:07.904Z,1012.67
2023-08-17T07:14:07.888Z,1012.61
2023-08-17T07:15:07.882Z,1012.62
2023-08-17T07:16:07.889Z,1012.64
2023-08-17T07:17:07.854Z,1012.65
2023-08-17T07:18:07.916Z,1012.66
2023-08-17T07:19:07.833Z,1012.67
2023-08-17T07:20:16.322Z,1012.68
2023-08-17T07:21:08.834Z,1012.69
2023-08-17T07:22:07.796Z,1012.68
2023-08-17T07:23:07.788Z,1012.67
2023-08-17T07:24:07.780Z,1012.63
2023-08-17T07:25:07.774Z,1012.68
2023-08-17T07:26:07.763Z,1012.67
2023-08-17T07:27:07.750Z,1012.68
2023-08-17T07:28:07.729Z,1012.70
2023-08-17T07:29:07.719Z,1012.69
2023-08-17T07:30:07.721Z,1012.76
2023-08-17T07:31:07.704Z,1012.76
2023-08-17T07:32:07.748Z,1012.77
2023-08-17T07:33:07.734Z,1012.77
2023-08-17T07:34:07.665Z,1012.84
2023-08-17T07:35:07.670Z,1012.82
2023-08-17T07:36:07.644Z,1012.88
2023-08-17T07:37:07.662Z,1012.90
2023-08-17T07:38:09.636Z,1012.92
2023-08-17T07:39:07.609Z,1012.90
2023-08-17T07:40:07.599Z,1012.89
2023-08-17T07:41:07.616Z,1012.89
2023-08-17T07:42:07.636Z,1012.84
2023-08-17T07:43:07.576Z,1012.86
2023-08-17T07:44:07.555Z,1012.87
2023-08-17T07:45:07.546Z,1012.88
2023-08-17T07:46:07.604Z,1012.88
2023-08-17T07:47:07.520Z,1012.88
2023-08-17T07:48:07.541Z,1012.89
2023-08-17T07:49:15.879Z,1012.92
2023-08-17T07:50:08.485Z,1012.90
2023-08-17T07:51:07.492Z,1012.91
2023-08-17T07:52:07.491Z,1012.94
2023-08-17T07:53:07.481Z,1012.93
2023-08-17T07:54:07.439Z,1012.96
2023-08-17T07:55:07.430Z,1012.98
2023-08-17T07:56:07.440Z,1012.96
2023-08-17T07:57:07.415Z,1013.01
2023-08-17T07:58:07.392Z,1013.01
2023-08-17T07:59:07.397Z,1013.00
2023-08-17T08:00:07.408Z,1013.03
2023-08-17T08:01:07.417Z,1013.03
2023-08-17T08:02:07.349Z,1013.02
2023-08-17T08:03:07.374Z,1013.04
2023-08-17T08:04:07.325Z,1013.03
2023-08-17T08:05:07.373Z,1013.02
2023-08-17T08:06:07.310Z,1013.02
2023-08-17T08:07:07.344Z,1013.03
2023-08-17T08:08:07.278Z,1013.04
2023-08-17T08:09:07.295Z,1013.01
2023-08-17T08:10:07.259Z,1013.02
2023-08-17T08:11:07.270Z,1012.98
2023-08-17T08:12:07.246Z,1012.97
2023-08-17T08:13:07.234Z,1013.00
2023-08-17T08:14:07.215Z,1013.01
2023-08-17T08:15:07.208Z,1013.04
2023-08-17T08:16:07.263Z,1013.06
2023-08-17T08:17:07.195Z,1013.08
2023-08-17T08:18:07.180Z,1013.08
2023-08-17T08:19:07.165Z,1013.07
2023-08-17T08:20:07.178Z,1013.08
2023-08-17T08:21:07.156Z,1013.08
2023-08-17T08:22:07.922Z,1013.05
2023-08-17T08:23:07.122Z,1013.04
2023-08-17T08:24:17.788Z,1013.04
2023-08-17T08:25:08.165Z,1013.01
2023-08-17T08:26:07.146Z,1013.07
2023-08-17T08:27:07.089Z,1013.07
2023-08-17T08:28:07.078Z,1013.09
2023-08-17T08:29:07.054Z,1013.07
2023-08-17T08:30:07.041Z,1013.05
2023-08-17T08:31:07.082Z,1013.08
2023-08-17T08:32:07.024Z,1012.99
2023-08-17T08:33:07.091Z,1012.93
2023-08-17T08:34:06.998Z,1012.91
2023-08-17T08:35:06.997Z,1012.88
2023-08-17T08:36:06.995Z,1012.87
2023-08-17T08:37:06.987Z,1012.86
2023-08-17T08:38:06.961Z,1012.86
2023-08-17T08:39:06.946Z,1012.83
2023-08-17T08:40:06.936Z,1012.85
2023-08-17T08:41:07.030Z,1012.85
2023-08-17T08:42:06.913Z,1012.87
2023-08-17T08:43:06.913Z,1012.87
2023-08-17T08:44:06.890Z,1012.88
2023-08-17T08:45:06.877Z,1012.87
2023-08-17T08:46:06.906Z,1012.88
2023-08-17T08:47:06.859Z,1012.88
2023-08-17T08:48:06.884Z,1012.94
2023-08-17T08:49:06.839Z,1012.92
2023-08-17T08:50:06.829Z,1012.93
2023-08-17T08:51:06.826Z,1012.93
2023-08-17T08:52:06.838Z,1012.92
2023-08-17T08:53:06.806Z,1012.89
2023-08-17T08:54:06.781Z,1012.86
2023-08-17T08:55:06.774Z,1012.84
2023-08-17T08:56:06.795Z,1012.86
2023-08-17T08:57:06.777Z,1012.87
2023-08-17T08:58:06.737Z,1012.86
2023-08-17T08:59:06.744Z,1012.84
2023-08-17T09:00:06.716Z,1012.86
2023-08-17T09:01:09.114Z,1012.85
2023-08-17T09:02:06.694Z,1012.85
2023-08-17T09:03:06.702Z,1012.90
2023-08-17T09:04:06.676Z,1012.88
2023-08-17T09:05:06.743Z,1012.85
2023-08-17T09:06:06.684Z,1012.87
2023-08-17T09:07:06.901Z,1012.85
2023-08-17T09:08:06.728Z,1012.85
2023-08-17T09:09:06.638Z,1012.80
2023-08-17T09:10:06.606Z,1012.80
2023-08-17T09:11:06.603Z,1012.78
2023-08-17T09:12:06.599Z,1012.78
2023-08-17T09:13:06.598Z,1012.75
2023-08-17T09:14:06.602Z,1012.76
2023-08-17T09:15:06.574Z,1012.75
2023-08-17T09:16:08.049Z,1012.74
2023-08-17T09:17:06.561Z,1012.78
2023-08-17T09:18:06.651Z,1012.78
2023-08-17T09:19:06.509Z,1012.77
2023-08-17T09:20:06.566Z,1012.78
2023-08-17T09:21:06.503Z,1012.72
2023-08-17T09:22:06.496Z,1012.71
2023-08-17T09:23:06.467Z,1012.74
2023-08-17T09:24:06.461Z,1012.73
2023-08-17T09:25:06.444Z,1012.74
2023-08-17T09:26:06.542Z,1012.71
2023-08-17T09:27:10.779Z,1012.69
2023-08-17T09:28:06.417Z,1012.71
2023-08-17T09:29:06.473Z,1012.73
2023-08-17T09:30:06.395Z,1012.72
2023-08-17T09:31:06.437Z,1012.70
2023-08-17T09:32:06.397Z,1012.66
2023-08-17T09:33:06.377Z,1012.65
2023-08-17T09:34:06.343Z,1012.66
2023-08-17T09:35:06.338Z,1012.66
2023-08-17T09:36:06.350Z,1012.68
2023-08-17T09:37:06.308Z,1012.68
2023-08-17T09:38:10.131Z,1012.69
2023-08-17T09:39:06.282Z,1012.70
2023-08-17T09:40:06.275Z,1012.68
2023-08-17T09:41:06.285Z,1012.72
2023-08-17T09:42:06.256Z,1012.69
2023-08-17T09:43:06.247Z,1012.67
2023-08-17T09:44:06.230Z,1012.69
2023-08-17T09:45:06.256Z,1012.69
2023-08-17T09:46:06.234Z,1012.68
2023-08-17T09:47:06.206Z,1012.70
2023-08-17T09:48:06.227Z,1012.68
2023-08-17T09:49:06.168Z,1012.68
2023-08-17T09:50:06.166Z,1012.65
2023-08-17T09:51:06.171Z,1012.64
2023-08-17T09:52:06.138Z,1012.65
2023-08-17T09:53:06.124Z,1012.65
2023-08-17T09:54:06.897Z,1012.67
2023-08-17T09:55:08.628Z,1012.64
2023-08-17T09:56:06.106Z,1012.64
2023-08-17T09:57:06.082Z,1012.59
2023-08-17T09:58:06.099Z,1012.59
2023-08-17T09:59:06.125Z,1012.54
2023-08-17T10:00:06.048Z,1012.58
2023-08-17T10:01:06.100Z,1012.58
2023-08-17T10:02:06.021Z,1012.58
2023-08-17T10:03:08.358Z,1012.55
2023-08-17T10:04:06.001Z,1012.57
2023-08-17T10:05:06.020Z,1012.55
2023-08-17T10:06:06.006Z,1012.58
2023-08-17T10:07:05.972Z,1012.53
2023-08-17T10:08:05.958Z,1012.56
2023-08-17T10:09:05.943Z,1012.55
2023-08-17T10:10:05.937Z,1012.57
2023-08-17T10:11:06.062Z,1012.57
2023-08-17T10:12:05.950Z,1012.55
2023-08-17T10:13:06.373Z,1012.56
2023-08-17T10:15:06.877Z,1012.56
2023-08-17T10:16:05.894Z,1012.58
2023-08-17T10:17:05.938Z,1012.57
2023-08-17T10:18:05.865Z,1012.57
2023-08-17T10:19:05.835Z,1012.59
2023-08-17T10:20:05.822Z,1012.59
2023-08-17T10:21:05.834Z,1012.57
2023-08-17T10:22:05.809Z,1012.58
2023-08-17T10:23:05.802Z,1012.51
2023-08-17T10:24:05.781Z,1012.49
2023-08-17T10:25:05.765Z,1012.51
2023-08-17T10:26:05.818Z,1012.52
2023-08-17T10:27:05.744Z,1012.53
2023-08-17T10:28:05.743Z,1012.58
2023-08-17T10:30:09.300Z,1012.50
2023-08-17T10:32:06.742Z,1012.55
2023-08-17T10:33:05.707Z,1012.54
2023-08-17T10:34:05.672Z,1012.57
2023-08-17T10:35:05.666Z,1012.59
2023-08-17T10:36:05.643Z,1012.57
2023-08-17T10:37:05.665Z,1012.58
2023-08-17T10:38:10.590Z,1012.61
2023-08-17T10:39:12.430Z,1012.60
2023-08-17T10:40:06.612Z,1012.62
2023-08-17T10:41:05.595Z,1012.63
2023-08-17T10:42:05.608Z,1012.62
2023-08-17T10:43:05.565Z,1012.64
2023-08-17T10:44:05.561Z,1012.62
2023-08-17T10:45:05.553Z,1012.64
2023-08-17T10:46:05.592Z,1012.62
2023-08-17T10:47:05.532Z,1012.63
2023-08-17T10:48:05.562Z,1012.64
2023-08-17T10:49:05.544Z,1012.64
2023-08-17T10:50:05.486Z,1012.64
2023-08-17T10:51:05.485Z,1012.65
2023-08-17T10:52:05.484Z,1012.66
2023-08-17T10:53:05.452Z,1012.61
2023-08-17T10:54:05.453Z,1012.62
2023-08-17T10:55:05.438Z,1012.61
2023-08-17T10:56:05.421Z,1012.60
2023-08-17T10:57:09.650Z,1012.62
2023-08-17T10:58:05.410Z,1012.64
2023-08-17T10:59:05.388Z,1012.67
2023-08-17T11:00:05.374Z,1012.68
2023-08-17T11:01:05.391Z,1012.68
2023-08-17T11:02:05.375Z,1012.72
2023-08-17T11:03:05.385Z,1012.68
2023-08-17T11:04:05.329Z,1012.74
2023-08-17T11:05:05.389Z,1012.73
2023-08-17T11:06:05.307Z,1012.74
2023-08-17T11:07:05.426Z,1012.73
2023-08-17T11:08:05.293Z,1012.75
2023-08-17T11:09:05.297Z,1012.73
2023-08-17T11:10:05.326Z,1012.79
2023-08-17T11:11:05.335Z,1012.69
2023-08-17T11:12:05.240Z,1012.67
2023-08-17T11:13:05.233Z,1012.71
2023-08-17T11:14:05.219Z,1012.73
2023-08-17T11:15:05.206Z,1012.70
2023-08-17T11:16:05.605Z,1012.70
2023-08-17T11:17:06.327Z,1012.67
2023-08-17T11:18:09.778Z,1012.69
2023-08-17T11:19:05.183Z,1012.71
2023-08-17T11:20:05.160Z,1012.65
2023-08-17T11:21:05.177Z,1012.68
2023-08-17T11:22:05.137Z,1012.62
2023-08-17T11:23:05.191Z,1012.65
2023-08-17T11:24:05.115Z,1012.63
2023-08-17T11:25:05.100Z,1012.60
2023-08-17T11:26:05.103Z,1012.60
2023-08-17T11:27:05.100Z,1012.59
2023-08-17T11:28:05.067Z,1012.61
2023-08-17T11:29:05.099Z,1012.57
2023-08-17T11:30:05.100Z,1012.58
2023-08-17T11:31:05.119Z,1012.50
2023-08-17T11:32:05.088Z,1012.55
2023-08-17T11:33:05.052Z,1012.53
2023-08-17T11:34:04.994Z,1012.56
2023-08-17T11:35:05.008Z,1012.53
2023-08-17T11:36:04.986Z,1012.56
2023-08-17T11:37:05.632Z,1012.63
2023-08-17T11:38:08.089Z,1012.63
2023-08-17T11:39:10.533Z,1012.66
2023-08-17T11:40:05.937Z,1012.62
2023-08-17T11:41:04.921Z,1012.62
2023-08-17T11:42:04.923Z,1012.63
2023-08-17T11:43:04.900Z,1012.65
2023-08-17T11:44:04.898Z,1012.64
2023-08-17T11:45:04.887Z,1012.62
2023-08-17T11:46:04.884Z,1012.61
2023-08-17T11:47:04.897Z,1012.62
2023-08-17T11:48:04.971Z,1012.59
2023-08-17T11:49:04.846Z,1012.56
2023-08-17T11:50:18.680Z,1012.60
2023-08-17T11:51:06.108Z,1012.56
2023-08-17T11:52:04.807Z,1012.58
2023-08-17T11:53:04.897Z,1012.58
2023-08-17T11:54:04.780Z,1012.59
2023-08-17T11:55:04.788Z,1012.58
2023-08-17T11:56:07.908Z,1012.57
2023-08-17T11:57:05.928Z,1012.59
2023-08-17T11:58:09.778Z,1012.57
2023-08-17T11:59:05.748Z,1012.57
2023-08-17T12:00:04.717Z,1012.59
2023-08-17T12:01:04.795Z,1012.53
2023-08-17T12:02:04.712Z,1012.50
2023-08-17T12:03:04.742Z,1012.52
2023-08-17T12:04:04.696Z,1012.49
2023-08-17T12:05:04.691Z,1012.52
2023-08-17T12:06:04.646Z,1012.52
2023-08-17T12:07:04.715Z,1012.54
2023-08-17T12:08:04.626Z,1012.52